sensor_id;sensor_type;location;lat;lon;timestamp;P1;durP1;ratioP1;P2;durP2;ratioP2
15408;SDS011;7803;48.130;13.788;2022-09-30T00:02:37;4.75;;;4.18;;
15408;SDS011;7803;48.130;13.788;2022-09-30T00:05:40;4.53;;;4.07;;
15408;SDS011;7803;48.130;13.788;2022-09-30T00:08:43;4.60;;;4.13;;
15408;SDS011;7803;48.130;13.788;2022-09-30T00:11:45;4.55;;;4.15;;
15408;SDS011;7803;48.130;13.788;2022-09-30T00:14:46;4.82;;;4.40;;
15408;SDS011;7803;48.130;13.788;2022-09-30T00:17:48;4.60;;;4.20;;
15408;SDS011;7803;48.130;13.788;2022-09-30T00:20:52;4.50;;;4.10;;
15408;SDS011;7803;48.130;13.788;2022-09-30T00:23:54;4.60;;;4.20;;
15408;SDS011;7803;48.130;13.788;2022-09-30T00:26:57;4.70;;;4.30;;
15408;SDS011;7803;48.130;13.788;2022-09-30T00:29:59;5.47;;;4.32;;
15408;SDS011;7803;48.130;13.788;2022-09-30T00:33:01;4.75;;;4.25;;
15408;SDS011;7803;48.130;13.788;2022-09-30T00:36:05;4.18;;;3.78;;
15408;SDS011;7803;48.130;13.788;2022-09-30T00:39:07;4.30;;;3.90;;
15408;SDS011;7803;48.130;13.788;2022-09-30T00:42:12;4.72;;;4.18;;
15408;SDS011;7803;48.130;13.788;2022-09-30T00:45:15;4.05;;;3.67;;
15408;SDS011;7803;48.130;13.788;2022-09-30T00:48:18;4.25;;;3.78;;
15408;SDS011;7803;48.130;13.788;2022-09-30T00:51:26;4.43;;;4.03;;
15408;SDS011;7803;48.130;13.788;2022-09-30T00:54:32;4.50;;;4.10;;
15408;SDS011;7803;48.130;13.788;2022-09-30T00:57:35;4.20;;;3.58;;
15408;SDS011;7803;48.130;13.788;2022-09-30T01:00:37;4.40;;;4.00;;
15408;SDS011;7803;48.130;13.788;2022-09-30T01:03:40;4.25;;;3.85;;
15408;SDS011;7803;48.130;13.788;2022-09-30T01:06:45;3.92;;;3.50;;
15408;SDS011;7803;48.130;13.788;2022-09-30T01:09:48;5.15;;;4.13;;
15408;SDS011;7803;48.130;13.788;2022-09-30T01:12:50;4.07;;;3.78;;
15408;SDS011;7803;48.130;13.788;2022-09-30T01:15:57;4.50;;;4.10;;
15408;SDS011;7803;48.130;13.788;2022-09-30T01:19:18;4.40;;;4.00;;
15408;SDS011;7803;48.130;13.788;2022-09-30T01:22:54;4.32;;;3.92;;
15408;SDS011;7803;48.130;13.788;2022-09-30T01:33:15;4.43;;;3.92;;
15408;SDS011;7803;48.130;13.788;2022-09-30T01:36:30;4.82;;;4.10;;
15408;SDS011;7803;48.130;13.788;2022-09-30T01:39:46;4.40;;;4.00;;
15408;SDS011;7803;48.130;13.788;2022-09-30T01:42:53;4.32;;;3.70;;
15408;SDS011;7803;48.130;13.788;2022-09-30T01:46:03;4.32;;;3.92;;
15408;SDS011;7803;48.130;13.788;2022-09-30T01:49:15;4.75;;;4.18;;
15408;SDS011;7803;48.130;13.788;2022-09-30T01:52:30;4.22;;;3.80;;
15408;SDS011;7803;48.130;13.788;2022-09-30T01:55:39;3.95;;;3.58;;
15408;SDS011;7803;48.130;13.788;2022-09-30T01:58:49;4.20;;;3.80;;
15408;SDS011;7803;48.130;13.788;2022-09-30T02:01:55;4.32;;;3.67;;
15408;SDS011;7803;48.130;13.788;2022-09-30T02:05:04;4.07;;;3.65;;
15408;SDS011;7803;48.130;13.788;2022-09-30T02:08:11;4.28;;;3.88;;
15408;SDS011;7803;48.130;13.788;2022-09-30T02:11:17;4.32;;;3.70;;
15408;SDS011;7803;48.130;13.788;2022-09-30T02:14:25;4.18;;;3.70;;
15408;SDS011;7803;48.130;13.788;2022-09-30T02:17:31;4.10;;;3.70;;
15408;SDS011;7803;48.130;13.788;2022-09-30T02:20:41;4.90;;;3.75;;
15408;SDS011;7803;48.130;13.788;2022-09-30T02:23:44;4.28;;;3.72;;
15408;SDS011;7803;48.130;13.788;2022-09-30T02:26:49;3.90;;;3.50;;
15408;SDS011;7803;48.130;13.788;2022-09-30T02:29:56;4.20;;;3.80;;
15408;SDS011;7803;48.130;13.788;2022-09-30T02:33:01;4.80;;;3.58;;
15408;SDS011;7803;48.130;13.788;2022-09-30T02:36:08;3.95;;;3.55;;
15408;SDS011;7803;48.130;13.788;2022-09-30T02:39:19;4.07;;;3.67;;
15408;SDS011;7803;48.130;13.788;2022-09-30T02:42:28;4.35;;;3.78;;
15408;SDS011;7803;48.130;13.788;2022-09-30T02:45:32;4.30;;;3.90;;
15408;SDS011;7803;48.130;13.788;2022-09-30T02:48:44;4.75;;;4.13;;
15408;SDS011;7803;48.130;13.788;2022-09-30T02:51:55;4.35;;;3.95;;
15408;SDS011;7803;48.130;13.788;2022-09-30T02:55:09;4.70;;;4.03;;
15408;SDS011;7803;48.130;13.788;2022-09-30T02:58:19;4.72;;;4.20;;
15408;SDS011;7803;48.130;13.788;2022-09-30T03:01:25;4.55;;;4.10;;
15408;SDS011;7803;48.130;13.788;2022-09-30T03:04:28;4.40;;;4.00;;
15408;SDS011;7803;48.130;13.788;2022-09-30T03:07:34;4.93;;;4.43;;
15408;SDS011;7803;48.130;13.788;2022-09-30T03:10:36;4.68;;;4.28;;
15408;SDS011;7803;48.130;13.788;2022-09-30T03:13:49;5.03;;;4.22;;
15408;SDS011;7803;48.130;13.788;2022-09-30T03:17:32;4.70;;;4.20;;
15408;SDS011;7803;48.130;13.788;2022-09-30T03:20:49;4.22;;;3.83;;
15408;SDS011;7803;48.130;13.788;2022-09-30T03:24:12;4.72;;;4.30;;
15408;SDS011;7803;48.130;13.788;2022-09-30T03:27:27;5.13;;;4.60;;
15408;SDS011;7803;48.130;13.788;2022-09-30T03:30:37;4.53;;;4.13;;
15408;SDS011;7803;48.130;13.788;2022-09-30T03:33:46;5.25;;;4.57;;
15408;SDS011;7803;48.130;13.788;2022-09-30T03:36:57;5.40;;;4.90;;
15408;SDS011;7803;48.130;13.788;2022-09-30T03:40:05;6.70;;;4.90;;
15408;SDS011;7803;48.130;13.788;2022-09-30T03:43:18;5.40;;;4.90;;
15408;SDS011;7803;48.130;13.788;2022-09-30T03:46:27;4.60;;;4.20;;
15408;SDS011;7803;48.130;13.788;2022-09-30T03:49:35;5.20;;;4.70;;
15408;SDS011;7803;48.130;13.788;2022-09-30T03:52:40;5.03;;;4.53;;
15408;SDS011;7803;48.130;13.788;2022-09-30T03:55:47;5.15;;;4.65;;
15408;SDS011;7803;48.130;13.788;2022-09-30T03:58:50;4.85;;;4.35;;
15408;SDS011;7803;48.130;13.788;2022-09-30T04:01:52;4.82;;;4.40;;
15408;SDS011;7803;48.130;13.788;2022-09-30T04:04:56;4.88;;;4.40;;
15408;SDS011;7803;48.130;13.788;2022-09-30T04:07:58;5.07;;;4.57;;
15408;SDS011;7803;48.130;13.788;2022-09-30T04:11:02;5.28;;;4.57;;
15408;SDS011;7803;48.130;13.788;2022-09-30T04:14:04;4.97;;;4.40;;
15408;SDS011;7803;48.130;13.788;2022-09-30T04:17:06;5.10;;;4.60;;
15408;SDS011;7803;48.130;13.788;2022-09-30T04:20:08;5.10;;;4.60;;
15408;SDS011;7803;48.130;13.788;2022-09-30T04:23:11;5.03;;;4.53;;
15408;SDS011;7803;48.130;13.788;2022-09-30T04:26:16;4.97;;;4.47;;
15408;SDS011;7803;48.130;13.788;2022-09-30T04:29:19;6.70;;;4.65;;
15408;SDS011;7803;48.130;13.788;2022-09-30T04:32:21;5.60;;;4.68;;
15408;SDS011;7803;48.130;13.788;2022-09-30T04:35:24;5.00;;;4.50;;
15408;SDS011;7803;48.130;13.788;2022-09-30T04:38:28;4.88;;;4.38;;
15408;SDS011;7803;48.130;13.788;2022-09-30T04:41:32;6.85;;;4.80;;
15408;SDS011;7803;48.130;13.788;2022-09-30T04:44:34;5.40;;;4.90;;
15408;SDS011;7803;48.130;13.788;2022-09-30T04:47:36;4.85;;;4.22;;
15408;SDS011;7803;48.130;13.788;2022-09-30T04:50:38;4.93;;;4.50;;
15408;SDS011;7803;48.130;13.788;2022-09-30T04:53:40;5.20;;;4.70;;
15408;SDS011;7803;48.130;13.788;2022-09-30T04:56:44;5.03;;;4.53;;
15408;SDS011;7803;48.130;13.788;2022-09-30T04:59:46;4.90;;;4.32;;
15408;SDS011;7803;48.130;13.788;2022-09-30T05:02:49;5.30;;;4.80;;
15408;SDS011;7803;48.130;13.788;2022-09-30T05:05:52;5.20;;;4.70;;
15408;SDS011;7803;48.130;13.788;2022-09-30T05:08:54;5.32;;;4.82;;
15408;SDS011;7803;48.130;13.788;2022-09-30T05:11:57;5.10;;;4.60;;
15408;SDS011;7803;48.130;13.788;2022-09-30T05:15:01;5.20;;;4.70;;
15408;SDS011;7803;48.130;13.788;2022-09-30T05:18:03;4.47;;;4.07;;
15408;SDS011;7803;48.130;13.788;2022-09-30T05:21:05;4.90;;;4.50;;
15408;SDS011;7803;48.130;13.788;2022-09-30T05:24:07;4.72;;;4.22;;
15408;SDS011;7803;48.130;13.788;2022-09-30T05:27:11;4.88;;;4.38;;
15408;SDS011;7803;48.130;13.788;2022-09-30T05:30:13;5.13;;;4.63;;
15408;SDS011;7803;48.130;13.788;2022-09-30T05:33:15;5.20;;;4.75;;
15408;SDS011;7803;48.130;13.788;2022-09-30T05:36:17;5.32;;;4.82;;
15408;SDS011;7803;48.130;13.788;2022-09-30T05:39:19;5.25;;;4.75;;
15408;SDS011;7803;48.130;13.788;2022-09-30T05:42:22;5.20;;;4.47;;
15408;SDS011;7803;48.130;13.788;2022-09-30T05:45:25;5.43;;;4.93;;
15408;SDS011;7803;48.130;13.788;2022-09-30T05:48:27;5.28;;;4.45;;
15408;SDS011;7803;48.130;13.788;2022-09-30T05:51:29;5.20;;;4.70;;
15408;SDS011;7803;48.130;13.788;2022-09-30T05:54:31;5.07;;;4.57;;
15408;SDS011;7803;48.130;13.788;2022-09-30T05:57:35;5.75;;;5.15;;
15408;SDS011;7803;48.130;13.788;2022-09-30T06:00:39;6.00;;;5.15;;
15408;SDS011;7803;48.130;13.788;2022-09-30T06:03:42;7.60;;;6.20;;
15408;SDS011;7803;48.130;13.788;2022-09-30T06:06:45;6.15;;;5.50;;
15408;SDS011;7803;48.130;13.788;2022-09-30T06:09:47;6.05;;;5.53;;
15408;SDS011;7803;48.130;13.788;2022-09-30T06:12:51;6.50;;;5.90;;
15408;SDS011;7803;48.130;13.788;2022-09-30T06:15:53;7.00;;;5.40;;
15408;SDS011;7803;48.130;13.788;2022-09-30T06:18:56;5.70;;;5.20;;
15408;SDS011;7803;48.130;13.788;2022-09-30T06:21:58;6.35;;;5.75;;
15408;SDS011;7803;48.130;13.788;2022-09-30T06:25:01;6.50;;;5.90;;
15408;SDS011;7803;48.130;13.788;2022-09-30T06:28:05;6.35;;;5.32;;
15408;SDS011;7803;48.130;13.788;2022-09-30T06:31:07;7.13;;;5.40;;
15408;SDS011;7803;48.130;13.788;2022-09-30T06:34:10;7.80;;;5.25;;
15408;SDS011;7803;48.130;13.788;2022-09-30T06:37:12;5.65;;;5.13;;
15408;SDS011;7803;48.130;13.788;2022-09-30T06:40:15;6.10;;;5.43;;
15408;SDS011;7803;48.130;13.788;2022-09-30T06:43:18;6.13;;;5.53;;
15408;SDS011;7803;48.130;13.788;2022-09-30T06:46:21;5.90;;;5.10;;
15408;SDS011;7803;48.130;13.788;2022-09-30T06:49:23;6.10;;;5.50;;
15408;SDS011;7803;48.130;13.788;2022-09-30T06:52:26;5.80;;;5.07;;
15408;SDS011;7803;48.130;13.788;2022-09-30T06:55:28;5.70;;;5.15;;
15408;SDS011;7803;48.130;13.788;2022-09-30T06:58:32;6.05;;;5.45;;
15408;SDS011;7803;48.130;13.788;2022-09-30T07:01:34;5.45;;;4.95;;
15408;SDS011;7803;48.130;13.788;2022-09-30T07:04:36;5.43;;;4.90;;
15408;SDS011;7803;48.130;13.788;2022-09-30T07:07:38;5.72;;;4.93;;
15408;SDS011;7803;48.130;13.788;2022-09-30T07:10:41;5.57;;;5.07;;
15408;SDS011;7803;48.130;13.788;2022-09-30T07:13:47;6.10;;;4.90;;
15408;SDS011;7803;48.130;13.788;2022-09-30T07:16:49;5.15;;;4.65;;
15408;SDS011;7803;48.130;13.788;2022-09-30T07:19:52;5.50;;;5.00;;
15408;SDS011;7803;48.130;13.788;2022-09-30T07:22:54;6.00;;;5.20;;
15408;SDS011;7803;48.130;13.788;2022-09-30T07:25:59;6.00;;;5.07;;
15408;SDS011;7803;48.130;13.788;2022-09-30T07:29:04;5.68;;;4.70;;
15408;SDS011;7803;48.130;13.788;2022-09-30T07:32:07;7.05;;;5.13;;
15408;SDS011;7803;48.130;13.788;2022-09-30T07:35:09;5.70;;;4.95;;
15408;SDS011;7803;48.130;13.788;2022-09-30T07:38:11;6.68;;;5.28;;
15408;SDS011;7803;48.130;13.788;2022-09-30T07:41:16;6.65;;;5.55;;
15408;SDS011;7803;48.130;13.788;2022-09-30T07:44:22;5.55;;;4.88;;
15408;SDS011;7803;48.130;13.788;2022-09-30T07:47:25;7.70;;;5.50;;
15408;SDS011;7803;48.130;13.788;2022-09-30T07:50:27;6.47;;;5.40;;
15408;SDS011;7803;48.130;13.788;2022-09-30T07:53:29;8.88;;;5.88;;
15408;SDS011;7803;48.130;13.788;2022-09-30T07:56:33;9.45;;;5.80;;
15408;SDS011;7803;48.130;13.788;2022-09-30T07:59:39;9.75;;;5.78;;
15408;SDS011;7803;48.130;13.788;2022-09-30T08:02:42;7.15;;;5.50;;
15408;SDS011;7803;48.130;13.788;2022-09-30T08:05:44;8.77;;;5.72;;
15408;SDS011;7803;48.130;13.788;2022-09-30T08:08:48;8.75;;;5.53;;
15408;SDS011;7803;48.130;13.788;2022-09-30T08:11:51;8.77;;;5.70;;
15408;SDS011;7803;48.130;13.788;2022-09-30T08:14:55;10.25;;;5.80;;
15408;SDS011;7803;48.130;13.788;2022-09-30T08:17:58;8.65;;;5.50;;
15408;SDS011;7803;48.130;13.788;2022-09-30T08:21:01;9.40;;;5.40;;
15408;SDS011;7803;48.130;13.788;2022-09-30T08:24:03;9.88;;;5.40;;
15408;SDS011;7803;48.130;13.788;2022-09-30T08:27:05;8.48;;;5.28;;
15408;SDS011;7803;48.130;13.788;2022-09-30T08:30:10;11.43;;;5.57;;
15408;SDS011;7803;48.130;13.788;2022-09-30T08:33:12;9.32;;;5.30;;
15408;SDS011;7803;48.130;13.788;2022-09-30T08:36:15;10.70;;;4.78;;
15408;SDS011;7803;48.130;13.788;2022-09-30T08:39:18;12.88;;;4.82;;
15408;SDS011;7803;48.130;13.788;2022-09-30T08:42:26;10.48;;;4.60;;
15408;SDS011;7803;48.130;13.788;2022-09-30T08:45:42;7.25;;;4.38;;
15408;SDS011;7803;48.130;13.788;2022-09-30T08:48:57;10.52;;;4.60;;
15408;SDS011;7803;48.130;13.788;2022-09-30T08:52:08;7.28;;;4.32;;
15408;SDS011;7803;48.130;13.788;2022-09-30T08:55:17;6.13;;;4.35;;
15408;SDS011;7803;48.130;13.788;2022-09-30T08:58:23;6.82;;;4.15;;
15408;SDS011;7803;48.130;13.788;2022-09-30T09:01:29;8.38;;;4.63;;
15408;SDS011;7803;48.130;13.788;2022-09-30T09:04:33;9.70;;;4.40;;
15408;SDS011;7803;48.130;13.788;2022-09-30T09:07:37;7.53;;;4.68;;
15408;SDS011;7803;48.130;13.788;2022-09-30T09:10:46;7.32;;;4.28;;
15408;SDS011;7803;48.130;13.788;2022-09-30T09:13:57;6.85;;;4.32;;
15408;SDS011;7803;48.130;13.788;2022-09-30T09:17:10;7.53;;;3.90;;
15408;SDS011;7803;48.130;13.788;2022-09-30T09:20:21;6.20;;;4.20;;
15408;SDS011;7803;48.130;13.788;2022-09-30T09:23:29;5.85;;;3.70;;
15408;SDS011;7803;48.130;13.788;2022-09-30T09:26:34;6.25;;;4.10;;
15408;SDS011;7803;48.130;13.788;2022-09-30T09:29:38;4.50;;;3.85;;
15408;SDS011;7803;48.130;13.788;2022-09-30T09:32:49;5.70;;;3.97;;
15408;SDS011;7803;48.130;13.788;2022-09-30T09:35:57;5.25;;;3.88;;
15408;SDS011;7803;48.130;13.788;2022-09-30T09:39:12;5.60;;;3.55;;
15408;SDS011;7803;48.130;13.788;2022-09-30T09:45:51;7.57;;;3.50;;
15408;SDS011;7803;48.130;13.788;2022-09-30T09:49:14;4.65;;;3.38;;
15408;SDS011;7803;48.130;13.788;2022-09-30T09:52:39;4.82;;;3.45;;
15408;SDS011;7803;48.130;13.788;2022-09-30T09:55:53;4.32;;;3.47;;
15408;SDS011;7803;48.130;13.788;2022-09-30T09:59:06;4.15;;;3.60;;
15408;SDS011;7803;48.130;13.788;2022-09-30T10:02:20;4.72;;;3.28;;
15408;SDS011;7803;48.130;13.788;2022-09-30T10:05:25;5.28;;;3.60;;
15408;SDS011;7803;48.130;13.788;2022-09-30T10:08:32;5.35;;;3.40;;
15408;SDS011;7803;48.130;13.788;2022-09-30T10:11:35;4.57;;;3.10;;
15408;SDS011;7803;48.130;13.788;2022-09-30T10:14:38;4.85;;;3.50;;
15408;SDS011;7803;48.130;13.788;2022-09-30T10:17:49;4.75;;;3.63;;
15408;SDS011;7803;48.130;13.788;2022-09-30T10:20:58;5.55;;;3.38;;
15408;SDS011;7803;48.130;13.788;2022-09-30T10:24:05;5.70;;;3.38;;
15408;SDS011;7803;48.130;13.788;2022-09-30T10:27:27;6.88;;;3.42;;
15408;SDS011;7803;48.130;13.788;2022-09-30T10:30:32;4.35;;;3.10;;
15408;SDS011;7803;48.130;13.788;2022-09-30T10:33:46;7.35;;;3.55;;
15408;SDS011;7803;48.130;13.788;2022-09-30T10:36:55;5.35;;;2.95;;
15408;SDS011;7803;48.130;13.788;2022-09-30T10:40:00;5.82;;;3.15;;
15408;SDS011;7803;48.130;13.788;2022-09-30T10:43:04;5.97;;;3.22;;
15408;SDS011;7803;48.130;13.788;2022-09-30T10:46:07;5.53;;;3.50;;
15408;SDS011;7803;48.130;13.788;2022-09-30T10:49:10;5.38;;;3.10;;
15408;SDS011;7803;48.130;13.788;2022-09-30T10:52:37;5.03;;;3.30;;
15408;SDS011;7803;48.130;13.788;2022-09-30T10:55:44;5.93;;;3.22;;
15408;SDS011;7803;48.130;13.788;2022-09-30T10:58:46;5.35;;;2.95;;
15408;SDS011;7803;48.130;13.788;2022-09-30T11:01:52;4.97;;;3.10;;
15408;SDS011;7803;48.130;13.788;2022-09-30T11:05:02;6.30;;;2.70;;
15408;SDS011;7803;48.130;13.788;2022-09-30T11:08:15;5.22;;;2.95;;
15408;SDS011;7803;48.130;13.788;2022-09-30T11:11:23;4.20;;;2.85;;
15408;SDS011;7803;48.130;13.788;2022-09-30T11:14:28;5.22;;;2.92;;
15408;SDS011;7803;48.130;13.788;2022-09-30T11:17:37;4.38;;;2.88;;
15408;SDS011;7803;48.130;13.788;2022-09-30T11:20:44;4.43;;;2.80;;
15408;SDS011;7803;48.130;13.788;2022-09-30T11:23:55;3.78;;;2.60;;
15408;SDS011;7803;48.130;13.788;2022-09-30T11:27:02;5.07;;;3.10;;
15408;SDS011;7803;48.130;13.788;2022-09-30T11:30:10;5.43;;;3.33;;
15408;SDS011;7803;48.130;13.788;2022-09-30T11:33:20;4.68;;;2.88;;
15408;SDS011;7803;48.130;13.788;2022-09-30T11:36:37;3.92;;;2.90;;
15408;SDS011;7803;48.130;13.788;2022-09-30T11:39:52;3.60;;;2.72;;
15408;SDS011;7803;48.130;13.788;2022-09-30T11:43:07;4.22;;;2.60;;
15408;SDS011;7803;48.130;13.788;2022-09-30T11:46:22;3.85;;;2.70;;
15408;SDS011;7803;48.130;13.788;2022-09-30T11:49:35;3.10;;;2.58;;
15408;SDS011;7803;48.130;13.788;2022-09-30T11:53:03;3.40;;;2.67;;
15408;SDS011;7803;48.130;13.788;2022-09-30T11:56:22;3.58;;;2.70;;
15408;SDS011;7803;48.130;13.788;2022-09-30T11:59:33;4.07;;;2.58;;
15408;SDS011;7803;48.130;13.788;2022-09-30T12:02:42;3.85;;;2.90;;
15408;SDS011;7803;48.130;13.788;2022-09-30T12:05:47;4.88;;;2.50;;
15408;SDS011;7803;48.130;13.788;2022-09-30T12:08:54;3.00;;;2.40;;
15408;SDS011;7803;48.130;13.788;2022-09-30T12:12:02;5.20;;;2.53;;
15408;SDS011;7803;48.130;13.788;2022-09-30T12:15:11;4.50;;;2.60;;
15408;SDS011;7803;48.130;13.788;2022-09-30T12:18:18;4.53;;;2.65;;
15408;SDS011;7803;48.130;13.788;2022-09-30T12:21:23;3.13;;;2.60;;
15408;SDS011;7803;48.130;13.788;2022-09-30T12:24:31;4.88;;;2.70;;
15408;SDS011;7803;48.130;13.788;2022-09-30T12:27:39;2.90;;;2.60;;
15408;SDS011;7803;48.130;13.788;2022-09-30T12:30:45;4.25;;;2.75;;
15408;SDS011;7803;48.130;13.788;2022-09-30T12:33:51;4.05;;;2.90;;
15408;SDS011;7803;48.130;13.788;2022-09-30T12:37:07;2.75;;;2.47;;
15408;SDS011;7803;48.130;13.788;2022-09-30T12:40:25;4.28;;;2.60;;
15408;SDS011;7803;48.130;13.788;2022-09-30T12:44:00;3.40;;;2.78;;
15408;SDS011;7803;48.130;13.788;2022-09-30T12:47:33;3.20;;;2.42;;
15408;SDS011;7803;48.130;13.788;2022-09-30T12:50:45;3.13;;;2.45;;
15408;SDS011;7803;48.130;13.788;2022-09-30T12:53:54;177.55;;;76.50;;
15408;SDS011;7803;48.130;13.788;2022-09-30T12:57:03;1999.90;;;999.90;;
15408;SDS011;7803;48.130;13.788;2022-09-30T13:00:14;961.22;;;539.90;;
15408;SDS011;7803;48.130;13.788;2022-09-30T13:03:17;610.45;;;326.30;;
15408;SDS011;7803;48.130;13.788;2022-09-30T13:06:20;576.72;;;301.23;;
15408;SDS011;7803;48.130;13.788;2022-09-30T13:09:28;492.80;;;252.07;;
15408;SDS011;7803;48.130;13.788;2022-09-30T13:12:41;472.70;;;230.50;;
15408;SDS011;7803;48.130;13.788;2022-09-30T13:15:46;448.20;;;218.73;;
15408;SDS011;7803;48.130;13.788;2022-09-30T13:18:58;320.10;;;148.18;;
15408;SDS011;7803;48.130;13.788;2022-09-30T13:25:51;368.60;;;172.85;;
15408;SDS011;7803;48.130;13.788;2022-09-30T13:28:54;363.02;;;168.85;;
15408;SDS011;7803;48.130;13.788;2022-09-30T13:32:34;316.98;;;143.05;;
15408;SDS011;7803;48.130;13.788;2022-09-30T13:35:48;292.90;;;132.80;;
15408;SDS011;7803;48.130;13.788;2022-09-30T13:39:16;230.40;;;110.85;;
15408;SDS011;7803;48.130;13.788;2022-09-30T13:42:21;196.30;;;91.68;;
15408;SDS011;7803;48.130;13.788;2022-09-30T13:45:31;214.25;;;97.25;;
15408;SDS011;7803;48.130;13.788;2022-09-30T13:48:39;232.48;;;107.47;;
15408;SDS011;7803;48.130;13.788;2022-09-30T13:51:43;223.75;;;105.13;;
15408;SDS011;7803;48.130;13.788;2022-09-30T13:54:46;217.82;;;101.07;;
15408;SDS011;7803;48.130;13.788;2022-09-30T13:57:53;213.88;;;98.88;;
15408;SDS011;7803;48.130;13.788;2022-09-30T14:01:08;206.48;;;98.32;;
15408;SDS011;7803;48.130;13.788;2022-09-30T14:04:34;204.48;;;95.47;;
15408;SDS011;7803;48.130;13.788;2022-09-30T14:07:50;192.05;;;89.07;;
15408;SDS011;7803;48.130;13.788;2022-09-30T14:11:06;187.30;;;88.32;;
15408;SDS011;7803;48.130;13.788;2022-09-30T14:14:25;187.98;;;89.75;;
15408;SDS011;7803;48.130;13.788;2022-09-30T14:17:51;184.57;;;86.10;;
15408;SDS011;7803;48.130;13.788;2022-09-30T14:21:22;174.00;;;81.50;;
15408;SDS011;7803;48.130;13.788;2022-09-30T14:24:33;170.52;;;81.05;;
15408;SDS011;7803;48.130;13.788;2022-09-30T14:27:42;165.15;;;77.63;;
15408;SDS011;7803;48.130;13.788;2022-09-30T14:30:57;163.18;;;75.80;;
15408;SDS011;7803;48.130;13.788;2022-09-30T14:34:13;155.35;;;72.95;;
15408;SDS011;7803;48.130;13.788;2022-09-30T14:37:18;159.73;;;71.45;;
15408;SDS011;7803;48.130;13.788;2022-09-30T14:40:25;148.32;;;69.55;;
15408;SDS011;7803;48.130;13.788;2022-09-30T14:43:30;145.30;;;67.15;;
15408;SDS011;7803;48.130;13.788;2022-09-30T14:46:34;136.10;;;64.05;;
15408;SDS011;7803;48.130;13.788;2022-09-30T14:49:41;131.80;;;61.85;;
15408;SDS011;7803;48.130;13.788;2022-09-30T14:52:44;132.50;;;61.85;;
15408;SDS011;7803;48.130;13.788;2022-09-30T14:55:47;126.82;;;59.63;;
15408;SDS011;7803;48.130;13.788;2022-09-30T14:58:49;125.97;;;57.58;;
15408;SDS011;7803;48.130;13.788;2022-09-30T15:01:52;117.47;;;55.47;;
15408;SDS011;7803;48.130;13.788;2022-09-30T15:05:00;113.90;;;56.03;;
15408;SDS011;7803;48.130;13.788;2022-09-30T15:08:08;107.65;;;53.75;;
15408;SDS011;7803;48.130;13.788;2022-09-30T15:11:16;111.43;;;53.33;;
15408;SDS011;7803;48.130;13.788;2022-09-30T15:14:20;111.55;;;52.25;;
15408;SDS011;7803;48.130;13.788;2022-09-30T15:17:24;110.07;;;51.33;;
15408;SDS011;7803;48.130;13.788;2022-09-30T15:20:29;106.43;;;50.15;;
15408;SDS011;7803;48.130;13.788;2022-09-30T15:23:34;103.07;;;47.95;;
15408;SDS011;7803;48.130;13.788;2022-09-30T15:26:38;100.50;;;47.67;;
15408;SDS011;7803;48.130;13.788;2022-09-30T15:29:52;94.82;;;44.63;;
15408;SDS011;7803;48.130;13.788;2022-09-30T15:32:58;86.72;;;42.83;;
15408;SDS011;7803;48.130;13.788;2022-09-30T15:36:05;82.82;;;42.03;;
15408;SDS011;7803;48.130;13.788;2022-09-30T15:39:16;85.75;;;41.92;;
15408;SDS011;7803;48.130;13.788;2022-09-30T15:42:31;81.05;;;41.55;;
15408;SDS011;7803;48.130;13.788;2022-09-30T15:45:36;75.22;;;38.63;;
15408;SDS011;7803;48.130;13.788;2022-09-30T15:48:40;73.63;;;37.47;;
15408;SDS011;7803;48.130;13.788;2022-09-30T15:51:45;75.95;;;37.42;;
15408;SDS011;7803;48.130;13.788;2022-09-30T15:54:47;74.90;;;37.38;;
15408;SDS011;7803;48.130;13.788;2022-09-30T15:57:49;67.28;;;35.42;;
15408;SDS011;7803;48.130;13.788;2022-09-30T16:00:51;71.13;;;35.13;;
15408;SDS011;7803;48.130;13.788;2022-09-30T16:04:09;69.35;;;33.50;;
15408;SDS011;7803;48.130;13.788;2022-09-30T16:07:24;60.50;;;32.40;;
15408;SDS011;7803;48.130;13.788;2022-09-30T16:10:28;61.22;;;31.30;;
15408;SDS011;7803;48.130;13.788;2022-09-30T16:13:30;59.63;;;31.80;;
15408;SDS011;7803;48.130;13.788;2022-09-30T16:16:33;60.33;;;29.02;;
15408;SDS011;7803;48.130;13.788;2022-09-30T16:19:38;58.70;;;29.67;;
15408;SDS011;7803;48.130;13.788;2022-09-30T16:22:51;55.58;;;29.38;;
15408;SDS011;7803;48.130;13.788;2022-09-30T16:29:19;51.85;;;26.23;;
15408;SDS011;7803;48.130;13.788;2022-09-30T16:32:21;52.53;;;25.75;;
15408;SDS011;7803;48.130;13.788;2022-09-30T16:35:24;49.05;;;25.08;;
15408;SDS011;7803;48.130;13.788;2022-09-30T16:38:29;47.60;;;24.42;;
15408;SDS011;7803;48.130;13.788;2022-09-30T16:41:31;49.17;;;25.35;;
15408;SDS011;7803;48.130;13.788;2022-09-30T16:44:33;45.20;;;23.65;;
15408;SDS011;7803;48.130;13.788;2022-09-30T16:47:36;43.60;;;23.02;;
15408;SDS011;7803;48.130;13.788;2022-09-30T16:50:39;43.47;;;21.98;;
15408;SDS011;7803;48.130;13.788;2022-09-30T16:53:45;41.75;;;21.55;;
15408;SDS011;7803;48.130;13.788;2022-09-30T16:56:47;39.20;;;21.08;;
15408;SDS011;7803;48.130;13.788;2022-09-30T16:59:49;40.72;;;21.45;;
15408;SDS011;7803;48.130;13.788;2022-09-30T17:02:51;39.38;;;19.90;;
15408;SDS011;7803;48.130;13.788;2022-09-30T17:05:53;38.38;;;19.40;;
15408;SDS011;7803;48.130;13.788;2022-09-30T17:08:57;35.72;;;18.95;;
15408;SDS011;7803;48.130;13.788;2022-09-30T17:12:01;31.92;;;17.63;;
15408;SDS011;7803;48.130;13.788;2022-09-30T17:15:04;33.15;;;17.17;;
15408;SDS011;7803;48.130;13.788;2022-09-30T17:18:07;33.05;;;17.60;;
15408;SDS011;7803;48.130;13.788;2022-09-30T17:21:10;33.80;;;16.83;;
15408;SDS011;7803;48.130;13.788;2022-09-30T17:24:15;29.52;;;15.90;;
15408;SDS011;7803;48.130;13.788;2022-09-30T17:27:17;27.65;;;15.57;;
15408;SDS011;7803;48.130;13.788;2022-09-30T17:30:19;27.17;;;15.40;;
15408;SDS011;7803;48.130;13.788;2022-09-30T17:33:21;27.38;;;14.68;;
15408;SDS011;7803;48.130;13.788;2022-09-30T17:36:24;26.85;;;14.07;;
15408;SDS011;7803;48.130;13.788;2022-09-30T17:39:27;28.08;;;14.65;;
15408;SDS011;7803;48.130;13.788;2022-09-30T17:42:30;26.42;;;14.43;;
15408;SDS011;7803;48.130;13.788;2022-09-30T17:45:49;25.20;;;13.40;;
15408;SDS011;7803;48.130;13.788;2022-09-30T17:48:53;23.05;;;12.45;;
15408;SDS011;7803;48.130;13.788;2022-09-30T17:51:56;21.70;;;12.15;;
15408;SDS011;7803;48.130;13.788;2022-09-30T17:55:00;20.77;;;12.07;;
15408;SDS011;7803;48.130;13.788;2022-09-30T17:58:03;20.48;;;12.23;;
15408;SDS011;7803;48.130;13.788;2022-09-30T18:01:06;22.98;;;12.32;;
15408;SDS011;7803;48.130;13.788;2022-09-30T18:04:10;19.27;;;10.75;;
15408;SDS011;7803;48.130;13.788;2022-09-30T18:07:12;17.83;;;10.38;;
15408;SDS011;7803;48.130;13.788;2022-09-30T18:10:16;17.88;;;10.50;;
15408;SDS011;7803;48.130;13.788;2022-09-30T18:13:18;17.27;;;10.15;;
15408;SDS011;7803;48.130;13.788;2022-09-30T18:16:20;17.80;;;10.15;;
15408;SDS011;7803;48.130;13.788;2022-09-30T18:19:23;18.27;;;10.07;;
15408;SDS011;7803;48.130;13.788;2022-09-30T18:22:25;15.23;;;9.25;;
15408;SDS011;7803;48.130;13.788;2022-09-30T18:25:29;16.55;;;9.90;;
15408;SDS011;7803;48.130;13.788;2022-09-30T18:28:34;15.13;;;9.88;;
15408;SDS011;7803;48.130;13.788;2022-09-30T18:31:36;13.68;;;8.45;;
15408;SDS011;7803;48.130;13.788;2022-09-30T18:34:40;13.45;;;7.97;;
15408;SDS011;7803;48.130;13.788;2022-09-30T18:37:42;14.98;;;8.43;;
15408;SDS011;7803;48.130;13.788;2022-09-30T18:40:47;13.50;;;7.90;;
15408;SDS011;7803;48.130;13.788;2022-09-30T18:43:52;10.63;;;7.25;;
15408;SDS011;7803;48.130;13.788;2022-09-30T18:46:58;10.43;;;6.47;;
15408;SDS011;7803;48.130;13.788;2022-09-30T18:50:00;10.38;;;6.70;;
15408;SDS011;7803;48.130;13.788;2022-09-30T18:53:03;10.60;;;6.13;;